createdAt,value
2022-12-18T00:01:27.709Z,100.00
2022-12-18T00:03:56.485Z,100.00
2022-12-18T00:06:26.421Z,100.00
2022-12-18T00:08:53.799Z,100.00
2022-12-18T00:11:22.983Z,100.00
2022-12-18T00:13:50.528Z,100.00
2022-12-18T00:16:22.838Z,100.00
2022-12-18T00:18:51.189Z,100.00
2022-12-18T00:21:19.426Z,100.00
2022-12-18T00:23:47.612Z,100.00
2022-12-18T00:26:20.564Z,99.78
2022-12-18T00:28:47.946Z,98.61
2022-12-18T00:31:20.998Z,99.25
2022-12-18T00:33:48.584Z,98.58
2022-12-18T00:36:22.436Z,98.85
2022-12-18T00:38:49.545Z,98.96
2022-12-18T00:41:39.427Z,99.38
2022-12-18T00:44:08.208Z,98.63
2022-12-18T00:46:35.156Z,98.86
2022-12-18T00:49:02.779Z,97.86
2022-12-18T00:51:29.711Z,97.81
2022-12-18T00:53:56.673Z,97.17
2022-12-18T00:56:23.884Z,97.76
2022-12-18T00:58:50.963Z,97.16
2022-12-18T01:01:18.611Z,96.68
2022-12-18T01:03:47.604Z,97.84
2022-12-18T01:06:16.923Z,98.54
2022-12-18T01:08:44.004Z,98.37
2022-12-18T01:11:18.770Z,99.10
2022-12-18T01:13:45.724Z,98.62
2022-12-18T01:16:14.176Z,97.97
2022-12-18T01:18:41.592Z,97.99
2022-12-18T01:21:10.420Z,97.49
2022-12-18T01:23:38.993Z,97.29
2022-12-18T01:26:11.730Z,96.86
2022-12-18T01:28:39.465Z,96.77
2022-12-18T01:31:28.361Z,97.13
2022-12-18T01:33:56.103Z,97.25
2022-12-18T01:36:26.142Z,98.03
2022-12-18T01:38:53.514Z,97.58
2022-12-18T01:41:25.943Z,97.49
2022-12-18T01:43:58.452Z,96.85
2022-12-18T01:46:27.112Z,96.22
2022-12-18T01:49:02.003Z,96.12
2022-12-18T01:51:30.940Z,96.17
2022-12-18T01:53:58.812Z,96.33
2022-12-18T01:56:25.735Z,96.41
2022-12-18T01:59:12.699Z,96.58
2022-12-18T02:01:39.728Z,96.30
2022-12-18T02:04:35.983Z,96.72
2022-12-18T02:07:16.036Z,97.33
2022-12-18T02:09:51.652Z,97.16
2022-12-18T02:12:25.579Z,97.24
2022-12-18T02:15:06.878Z,96.56
2022-12-18T02:18:06.824Z,96.05
2022-12-18T02:20:38.413Z,96.96
2022-12-18T02:23:24.292Z,96.73
2022-12-18T02:26:12.364Z,97.69
2022-12-18T02:28:45.663Z,98.14
2022-12-18T02:31:17.451Z,97.93
2022-12-18T02:33:46.574Z,97.83
2022-12-18T02:36:15.821Z,97.80
2022-12-18T02:45:28.214Z,98.33
2022-12-18T02:47:55.241Z,98.18
2022-12-18T02:50:35.876Z,97.27
2022-12-18T02:53:09.217Z,97.07
2022-12-18T02:56:08.593Z,98.35
2022-12-18T02:58:41.522Z,98.74
2022-12-18T03:01:15.224Z,98.84
2022-12-18T03:03:54.060Z,99.28
2022-12-18T03:06:38.331Z,99.44
2022-12-18T03:09:12.113Z,98.75
2022-12-18T03:12:01.650Z,98.71
2022-12-18T03:14:32.204Z,98.07
2022-12-18T03:17:02.870Z,97.08
2022-12-18T03:19:32.888Z,96.91
2022-12-18T03:22:04.404Z,96.35
2022-12-18T03:24:41.114Z,97.06
2022-12-18T03:27:15.146Z,97.57
2022-12-18T03:29:54.912Z,98.18
2022-12-18T03:32:31.980Z,97.84
2022-12-18T03:35:05.419Z,98.45
2022-12-18T03:37:36.127Z,97.87
2022-12-18T03:40:05.790Z,97.75
2022-12-18T03:42:58.932Z,97.67
2022-12-18T03:45:54.923Z,96.72
2022-12-18T03:48:45.060Z,96.82
2022-12-18T03:51:23.464Z,97.45
2022-12-18T03:54:03.380Z,97.36
2022-12-18T03:56:39.805Z,97.17
2022-12-18T03:59:11.065Z,96.83
2022-12-18T04:01:43.918Z,96.93
2022-12-18T04:04:15.379Z,96.50
2022-12-18T04:06:45.668Z,96.16
2022-12-18T04:09:14.737Z,96.39
2022-12-18T04:11:45.450Z,95.90
2022-12-18T04:14:17.959Z,96.16
2022-12-18T04:16:45.683Z,97.35
2022-12-18T04:19:15.939Z,98.11
2022-12-18T04:21:44.724Z,98.85
2022-12-18T04:24:13.736Z,99.10
2022-12-18T04:26:47.077Z,98.77
2022-12-18T04:29:18.786Z,98.04
2022-12-18T04:31:46.142Z,97.31
2022-12-18T04:34:13.089Z,97.22
2022-12-18T04:36:47.953Z,96.92
2022-12-18T04:39:20.750Z,96.48
2022-12-18T04:41:49.972Z,96.27
2022-12-18T04:44:16.969Z,96.17
2022-12-18T04:46:44.238Z,96.25
2022-12-18T04:49:14.503Z,96.89
2022-12-18T04:51:41.342Z,97.27
2022-12-18T04:54:08.204Z,97.02
2022-12-18T04:56:35.003Z,96.79
2022-12-18T04:59:01.871Z,96.04
2022-12-18T05:01:34.313Z,96.42
2022-12-18T05:04:02.747Z,97.62
2022-12-18T05:06:29.738Z,98.32
2022-12-18T05:08:56.679Z,98.10
2022-12-18T05:11:23.569Z,98.11
2022-12-18T05:13:50.366Z,98.04
2022-12-18T05:16:17.348Z,97.38
2022-12-18T05:18:44.431Z,96.83
2022-12-18T05:21:11.405Z,96.39
2022-12-18T05:23:38.938Z,95.86
2022-12-18T05:26:08.762Z,95.95
2022-12-18T05:28:37.431Z,95.94
2022-12-18T05:31:05.436Z,96.38
2022-12-18T05:33:35.339Z,96.02
2022-12-18T05:36:03.954Z,95.23
2022-12-18T05:38:32.256Z,95.25
2022-12-18T05:40:59.625Z,94.79
2022-12-18T05:43:27.865Z,94.53
2022-12-18T05:45:55.034Z,94.27
2022-12-18T05:48:22.387Z,93.77
2022-12-18T05:50:50.713Z,93.31
2022-12-18T05:53:20.387Z,93.33
2022-12-18T05:55:48.060Z,93.54
2022-12-18T05:58:15.546Z,93.15
2022-12-18T06:00:47.395Z,92.83
2022-12-18T06:03:14.858Z,92.90
2022-12-18T06:05:44.406Z,92.64
2022-12-18T06:08:12.291Z,92.80
2022-12-18T06:10:39.754Z,92.59
2022-12-18T06:13:07.834Z,92.54
2022-12-18T06:15:37.805Z,93.12
2022-12-18T06:18:04.700Z,92.80
2022-12-18T06:20:33.681Z,92.70
2022-12-18T06:23:01.301Z,93.67
2022-12-18T06:25:28.263Z,93.24
2022-12-18T06:27:55.268Z,94.07
2022-12-18T06:30:22.236Z,93.92
2022-12-18T06:32:53.156Z,94.24
2022-12-18T06:35:23.815Z,93.46
2022-12-18T06:37:50.886Z,92.81
2022-12-18T06:40:18.031Z,92.56
2022-12-18T06:42:44.894Z,92.18
2022-12-18T06:45:12.569Z,92.45
2022-12-18T06:47:39.436Z,91.92
2022-12-18T06:50:06.792Z,91.92
2022-12-18T06:52:34.570Z,90.93
2022-12-18T06:55:02.132Z,89.28
2022-12-18T06:57:29.711Z,89.80
2022-12-18T06:59:56.491Z,89.41
2022-12-18T07:02:23.435Z,88.76
2022-12-18T07:04:50.264Z,87.75
2022-12-18T07:07:17.145Z,87.61
2022-12-18T07:09:44.012Z,88.15
2022-12-18T07:12:10.912Z,88.32
2022-12-18T07:14:37.750Z,87.83
2022-12-18T07:17:04.660Z,87.88
2022-12-18T07:19:33.398Z,87.68
2022-12-18T07:22:07.319Z,87.76
2022-12-18T07:24:42.209Z,87.55
2022-12-18T07:27:09.235Z,87.30
2022-12-18T07:29:37.038Z,87.24
2022-12-18T07:32:05.136Z,87.01
2022-12-18T07:34:31.971Z,87.13
2022-12-18T07:36:59.264Z,87.50
2022-12-18T07:39:26.478Z,87.07
2022-12-18T07:42:11.859Z,88.23
2022-12-18T07:44:40.536Z,88.97
2022-12-18T07:47:11.761Z,88.88
2022-12-18T07:49:41.397Z,88.83
2022-12-18T07:52:09.230Z,88.62
2022-12-18T07:54:36.209Z,88.75
2022-12-18T07:57:03.096Z,88.68
2022-12-18T07:59:29.957Z,88.48
2022-12-18T08:01:57.041Z,87.73
2022-12-18T08:04:24.233Z,85.29
2022-12-18T08:06:51.893Z,83.38
2022-12-18T08:09:18.884Z,82.71
2022-12-18T08:11:46.271Z,83.63
2022-12-18T08:14:13.175Z,83.54
2022-12-18T08:16:40.872Z,83.48
2022-12-18T08:19:07.744Z,83.79
2022-12-18T08:21:35.285Z,83.62
2022-12-18T08:24:02.915Z,83.27
2022-12-18T08:26:31.280Z,82.72
2022-12-18T08:28:59.978Z,83.14
2022-12-18T08:31:28.666Z,83.56
2022-12-18T08:33:56.377Z,83.98
2022-12-18T08:36:24.984Z,84.38
2022-12-18T08:38:53.105Z,83.34
2022-12-18T08:41:21.427Z,82.09
2022-12-18T08:44:07.993Z,82.22
2022-12-18T08:46:42.783Z,83.34
2022-12-18T08:49:10.955Z,82.49
2022-12-18T08:51:38.371Z,83.31
2022-12-18T08:54:06.615Z,83.44
2022-12-18T08:56:34.291Z,84.23
2022-12-18T08:59:01.391Z,83.24
2022-12-18T09:01:28.617Z,82.86
2022-12-18T09:03:55.713Z,81.56
2022-12-18T09:06:23.585Z,81.61
2022-12-18T09:08:51.081Z,81.25
2022-12-18T09:11:33.378Z,78.75
2022-12-18T09:14:26.847Z,78.90
2022-12-18T09:16:53.845Z,77.66
2022-12-18T09:19:20.756Z,77.65
2022-12-18T09:21:48.414Z,77.38
2022-12-18T09:24:16.506Z,77.58
2022-12-18T09:26:43.890Z,76.72
2022-12-18T09:29:16.431Z,76.65
2022-12-18T09:31:46.070Z,76.99
2022-12-18T09:34:13.224Z,76.02
2022-12-18T09:36:40.323Z,74.99
2022-12-18T09:39:08.848Z,75.37
2022-12-18T09:41:44.179Z,75.69
2022-12-18T09:44:32.328Z,75.30
2022-12-18T09:47:17.453Z,75.49
2022-12-18T09:49:47.017Z,76.07
2022-12-18T09:52:26.622Z,75.33
2022-12-18T09:55:06.871Z,75.07
2022-12-18T09:57:38.213Z,75.47
2022-12-18T10:00:25.512Z,74.50
2022-12-18T10:02:57.452Z,74.69
2022-12-18T10:05:51.979Z,73.59
2022-12-18T10:08:40.711Z,73.90
2022-12-18T10:11:35.398Z,74.25
2022-12-18T10:14:13.262Z,73.42
2022-12-18T10:16:55.195Z,74.33
2022-12-18T10:19:24.713Z,74.10
2022-12-18T10:22:22.504Z,74.96
2022-12-18T10:25:00.589Z,74.17
2022-12-18T10:27:28.440Z,74.95
2022-12-18T10:29:55.879Z,73.73
2022-12-18T10:32:29.130Z,74.29
2022-12-18T10:35:00.774Z,74.56
2022-12-18T10:37:30.550Z,74.67
2022-12-18T10:40:21.955Z,73.40
2022-12-18T10:43:12.843Z,74.74
2022-12-18T10:45:40.507Z,72.95
2022-12-18T10:48:20.944Z,70.99
2022-12-18T10:53:38.451Z,72.06
2022-12-18T10:56:07.654Z,71.81
2022-12-18T10:58:36.483Z,73.09
2022-12-18T11:01:08.243Z,70.21
2022-12-18T11:03:40.380Z,70.16
2022-12-18T11:06:16.019Z,70.94
2022-12-18T11:08:58.841Z,71.58
2022-12-18T11:11:26.511Z,71.79
2022-12-18T11:14:20.023Z,71.92
2022-12-18T11:19:42.037Z,73.59
2022-12-18T11:22:27.318Z,74.64
2022-12-18T11:28:43.442Z,74.73
2022-12-18T11:31:28.923Z,74.28
2022-12-18T11:34:31.031Z,74.75
2022-12-18T11:37:01.640Z,75.13
2022-12-18T11:39:39.688Z,75.43
2022-12-18T11:42:20.811Z,76.24
2022-12-18T11:44:50.540Z,76.22
2022-12-18T11:47:40.106Z,76.84
2022-12-18T11:50:15.493Z,77.02
2022-12-18T11:52:43.503Z,77.57
2022-12-18T11:55:16.984Z,77.26
2022-12-18T11:58:13.938Z,76.74
2022-12-18T12:00:52.075Z,78.85
2022-12-18T12:03:44.321Z,80.16
2022-12-18T12:06:23.526Z,80.85
2022-12-18T12:09:42.243Z,80.78
2022-12-18T12:12:17.989Z,82.25
2022-12-18T12:15:23.300Z,82.64
2022-12-18T12:18:28.802Z,82.75
2022-12-18T12:21:18.189Z,82.71
2022-12-18T12:24:22.281Z,82.92
2022-12-18T12:27:01.094Z,82.61
2022-12-18T12:29:43.779Z,82.00
2022-12-18T12:32:43.917Z,82.39
2022-12-18T12:35:30.145Z,81.64
2022-12-18T12:38:21.567Z,81.79
2022-12-18T12:41:02.747Z,81.61
2022-12-18T12:46:40.430Z,82.04
2022-12-18T12:49:16.520Z,82.11
2022-12-18T12:51:48.295Z,82.58
2022-12-18T12:54:24.297Z,82.88
2022-12-18T12:56:59.582Z,83.70
2022-12-18T12:59:39.717Z,84.12
2022-12-18T13:02:34.622Z,84.60
2022-12-18T13:05:20.266Z,85.77
2022-12-18T13:08:10.288Z,85.99
2022-12-18T13:10:39.015Z,85.72
2022-12-18T13:13:10.487Z,86.33
2022-12-18T13:15:42.619Z,85.56
2022-12-18T13:18:09.927Z,85.73
2022-12-18T13:20:43.100Z,85.04
2022-12-18T13:23:28.040Z,85.09
2022-12-18T13:26:16.557Z,85.08
2022-12-18T13:28:46.439Z,84.99
2022-12-18T13:31:32.408Z,84.10
2022-12-18T13:34:26.148Z,83.29
2022-12-18T13:36:56.591Z,83.54
2022-12-18T13:39:32.768Z,83.06
2022-12-18T13:42:07.288Z,83.86
2022-12-18T13:44:40.951Z,84.20
2022-12-18T13:47:32.619Z,83.84
2022-12-18T13:50:00.177Z,83.54
2022-12-18T13:52:30.172Z,85.22
2022-12-18T13:55:00.314Z,84.68
2022-12-18T13:57:31.828Z,84.66
2022-12-18T13:59:59.930Z,84.22
2022-12-18T14:02:29.494Z,84.61
2022-12-18T14:04:57.751Z,85.17
2022-12-18T14:07:34.526Z,85.04
2022-12-18T14:13:09.392Z,86.08
2022-12-18T14:15:42.499Z,84.60
2022-12-18T14:18:26.668Z,84.75
2022-12-18T14:20:57.891Z,85.19
2022-12-18T14:23:40.340Z,85.18
2022-12-18T14:26:29.337Z,84.08
2022-12-18T14:29:26.638Z,84.93
2022-12-18T14:32:18.735Z,84.26
2022-12-18T14:34:58.030Z,84.01
2022-12-18T14:37:26.785Z,83.17
2022-12-18T14:40:10.892Z,83.56
2022-12-18T14:42:38.677Z,83.01
2022-12-18T14:45:39.136Z,83.38
2022-12-18T14:48:10.264Z,83.58
2022-12-18T14:50:39.550Z,83.64
2022-12-18T14:53:07.824Z,84.71
2022-12-18T14:55:34.798Z,85.71
2022-12-18T14:58:02.781Z,84.73
2022-12-18T15:00:29.842Z,84.96
2022-12-18T15:02:58.936Z,84.67
2022-12-18T15:05:30.051Z,84.52
2022-12-18T15:08:00.000Z,83.75
2022-12-18T15:10:35.846Z,84.56
2022-12-18T15:15:45.881Z,84.05
2022-12-18T15:18:20.617Z,84.60
2022-12-18T15:20:52.396Z,85.31
2022-12-18T15:23:27.265Z,84.21
2022-12-18T15:26:03.575Z,84.69
2022-12-18T15:28:36.140Z,83.87
2022-12-18T15:31:18.259Z,81.42
2022-12-18T15:34:19.172Z,81.24
2022-12-18T15:36:46.129Z,79.92
2022-12-18T15:39:14.258Z,79.54
2022-12-18T15:41:41.644Z,78.44
2022-12-18T15:44:25.737Z,78.42
2022-12-18T15:46:52.543Z,76.99
2022-12-18T15:49:19.340Z,75.81
2022-12-18T15:51:50.415Z,75.19
2022-12-18T15:54:17.826Z,74.50
2022-12-18T15:57:03.541Z,74.29
2022-12-18T15:59:30.386Z,74.33
2022-12-18T16:01:57.736Z,74.20
2022-12-18T16:04:25.741Z,74.48
2022-12-18T16:09:39.743Z,74.90
2022-12-18T16:12:11.536Z,73.13
2022-12-18T16:14:38.457Z,73.23
2022-12-18T16:17:11.316Z,72.48
2022-12-18T16:19:38.139Z,72.67
2022-12-18T16:22:05.948Z,74.09
2022-12-18T16:24:37.056Z,72.93
2022-12-18T16:27:04.454Z,72.92
2022-12-18T16:29:31.417Z,72.45
2022-12-18T16:31:59.943Z,72.64
2022-12-18T16:34:29.440Z,71.80
2022-12-18T16:37:07.369Z,71.88
2022-12-18T16:39:38.471Z,72.52
2022-12-18T16:42:17.444Z,72.54
2022-12-18T16:44:45.749Z,73.46
2022-12-18T16:47:15.044Z,73.12
2022-12-18T16:49:43.199Z,73.06
2022-12-18T16:52:10.505Z,73.50
2022-12-18T16:54:37.429Z,72.92
2022-12-18T16:57:05.454Z,72.44
2022-12-18T16:59:35.325Z,72.80
2022-12-18T17:02:06.127Z,72.46
2022-12-18T17:04:35.029Z,72.34
2022-12-18T17:07:01.956Z,71.96
2022-12-18T17:09:28.771Z,73.37
2022-12-18T17:11:56.370Z,72.29
2022-12-18T17:14:27.156Z,72.84
2022-12-18T17:17:19.826Z,72.02
2022-12-18T17:19:41.957Z,71.90
2022-12-18T17:22:09.505Z,71.91
2022-12-18T17:24:36.523Z,71.82
2022-12-18T17:27:04.706Z,71.70
2022-12-18T17:29:31.747Z,72.19
2022-12-18T17:32:00.294Z,71.27
2022-12-18T17:34:28.683Z,71.42
2022-12-18T17:36:56.891Z,73.13
2022-12-18T17:39:23.979Z,73.33
2022-12-18T17:41:50.831Z,73.85
2022-12-18T17:44:18.251Z,73.37
2022-12-18T17:46:46.119Z,73.33
2022-12-18T17:49:14.096Z,73.98
2022-12-18T17:51:43.097Z,75.18
2022-12-18T17:54:11.217Z,74.95
2022-12-18T17:56:38.940Z,76.48
2022-12-18T17:59:07.192Z,77.66
2022-12-18T18:01:37.352Z,79.08
2022-12-18T18:04:08.128Z,79.68
2022-12-18T18:06:38.892Z,80.79
2022-12-18T18:09:09.993Z,80.46
2022-12-18T18:12:10.315Z,80.68
2022-12-18T18:14:42.448Z,81.29
2022-12-18T18:17:09.502Z,80.73
2022-12-18T18:19:36.522Z,80.66
2022-12-18T18:22:03.702Z,80.17
2022-12-18T18:24:30.842Z,81.01
2022-12-18T18:26:59.690Z,79.70
2022-12-18T18:29:28.628Z,78.92
2022-12-18T18:31:57.044Z,80.30
2022-12-18T18:34:26.746Z,80.73
2022-12-18T18:36:53.641Z,80.42
2022-12-18T18:39:20.479Z,79.79
2022-12-18T18:41:48.740Z,79.61
2022-12-18T18:44:20.660Z,79.44
2022-12-18T18:46:54.155Z,79.60
2022-12-18T18:49:21.469Z,79.04
2022-12-18T18:51:50.517Z,79.30
2022-12-18T18:54:17.358Z,80.80
2022-12-18T18:59:32.008Z,79.87
2022-12-18T19:02:00.676Z,79.14
2022-12-18T19:04:32.415Z,78.88
2022-12-18T19:06:59.266Z,77.84
2022-12-18T19:09:26.378Z,77.31
2022-12-18T19:12:12.683Z,77.87
2022-12-18T19:14:39.501Z,79.14
2022-12-18T19:17:06.356Z,77.91
2022-12-18T19:19:33.515Z,77.06
2022-12-18T19:22:00.490Z,76.87
2022-12-18T19:24:27.722Z,77.42
2022-12-18T19:26:57.918Z,77.16
2022-12-18T19:29:25.623Z,77.54
2022-12-18T19:31:53.139Z,78.48
2022-12-18T19:34:20.719Z,78.40
2022-12-18T19:36:47.834Z,78.99
2022-12-18T19:39:17.605Z,78.04
2022-12-18T19:41:45.271Z,79.02
2022-12-18T19:44:17.843Z,78.64
2022-12-18T19:46:46.255Z,79.25
2022-12-18T19:49:18.133Z,78.58
2022-12-18T19:51:46.011Z,80.08
2022-12-18T19:54:17.266Z,79.51
2022-12-18T19:56:45.181Z,79.04
2022-12-18T19:59:12.025Z,80.21
2022-12-18T20:01:39.015Z,79.96
2022-12-18T20:04:06.285Z,79.60
2022-12-18T20:06:55.347Z,79.05
2022-12-18T20:09:22.397Z,80.50
2022-12-18T20:11:49.622Z,81.16
2022-12-18T20:14:22.321Z,80.69
2022-12-18T20:16:50.826Z,79.38
2022-12-18T20:19:18.892Z,78.92
2022-12-18T20:21:46.074Z,79.17
2022-12-18T20:24:13.391Z,78.64
2022-12-18T20:26:40.679Z,78.27
2022-12-18T20:29:07.589Z,77.91
2022-12-18T20:31:34.721Z,79.44
2022-12-18T20:34:03.614Z,78.45
2022-12-18T20:36:33.069Z,78.90
2022-12-18T20:39:06.430Z,77.38
2022-12-18T20:41:38.800Z,77.07
2022-12-18T20:44:22.759Z,76.40
2022-12-18T20:46:56.677Z,77.29
2022-12-18T20:49:25.573Z,77.21
2022-12-18T20:51:58.693Z,77.84
2022-12-18T20:54:27.416Z,76.74
2022-12-18T20:56:55.558Z,76.91
2022-12-18T20:59:25.265Z,76.56
2022-12-18T21:01:52.866Z,76.79
2022-12-18T21:04:20.820Z,75.76
2022-12-18T21:06:54.129Z,76.63
2022-12-18T21:09:25.898Z,74.86
2022-12-18T21:12:14.211Z,75.97
2022-12-18T21:14:41.354Z,76.41
2022-12-18T21:17:08.329Z,76.80
2022-12-18T21:19:35.414Z,77.63
2022-12-18T21:22:04.570Z,77.21
2022-12-18T21:24:32.695Z,76.63
2022-12-18T21:26:59.999Z,75.87
2022-12-18T21:29:27.050Z,75.91
2022-12-18T21:31:54.934Z,75.23
2022-12-18T21:34:27.829Z,75.96
2022-12-18T21:36:57.354Z,76.62
2022-12-18T21:39:25.286Z,75.73
2022-12-18T21:42:10.846Z,76.80
2022-12-18T21:44:42.175Z,77.88
2022-12-18T21:47:22.091Z,78.51
2022-12-18T21:49:49.662Z,77.95
2022-12-18T21:52:17.027Z,77.97
2022-12-18T21:54:43.922Z,78.76
2022-12-18T21:57:11.049Z,77.28
2022-12-18T21:59:40.542Z,77.69
2022-12-18T22:02:15.965Z,78.17
2022-12-18T22:04:43.965Z,77.88
2022-12-18T22:07:11.773Z,78.37
2022-12-18T22:09:38.813Z,78.70
2022-12-18T22:12:06.343Z,77.41
2022-12-18T22:14:33.124Z,77.85
2022-12-18T22:17:00.000Z,77.03
2022-12-18T22:19:27.951Z,77.23
2022-12-18T22:21:55.365Z,78.73
2022-12-18T22:24:24.595Z,78.33
2022-12-18T22:27:01.771Z,78.45
2022-12-18T22:29:48.316Z,78.10
2022-12-18T22:32:20.414Z,76.74
2022-12-18T22:35:04.901Z,77.54
2022-12-18T22:37:33.019Z,75.64
2022-12-18T22:39:59.880Z,75.24
2022-12-18T22:42:31.253Z,74.51
2022-12-18T22:45:00.789Z,75.71
2022-12-18T22:47:30.064Z,75.98
2022-12-18T22:49:58.129Z,75.29
2022-12-18T22:52:27.699Z,74.09
2022-12-18T22:54:54.601Z,73.11
2022-12-18T22:57:22.470Z,73.73
2022-12-18T22:59:50.412Z,73.25
2022-12-18T23:02:20.519Z,75.24
2022-12-18T23:04:50.518Z,74.43
2022-12-18T23:07:17.345Z,74.22
2022-12-18T23:09:44.915Z,72.84
2022-12-18T23:12:15.912Z,72.38
2022-12-18T23:14:44.220Z,71.19
2022-12-18T23:17:11.207Z,71.87
2022-12-18T23:19:38.043Z,71.35
2022-12-18T23:22:10.018Z,72.50
2022-12-18T23:24:38.519Z,71.81
2022-12-18T23:27:06.511Z,70.67
2022-12-18T23:29:38.288Z,71.35
2022-12-18T23:32:05.122Z,70.88
2022-12-18T23:34:32.116Z,70.98
2022-12-18T23:36:59.008Z,71.86
2022-12-18T23:39:29.298Z,70.66
2022-12-18T23:42:00.495Z,70.43
2022-12-18T23:44:28.150Z,70.66
2022-12-18T23:46:55.532Z,69.57
2022-12-18T23:49:22.691Z,70.01
2022-12-18T23:51:49.675Z,71.37
2022-12-18T23:54:16.609Z,69.70
2022-12-18T23:56:43.424Z,69.79
2022-12-18T23:59:10.341Z,69.77
